sensor_id;sensor_type;location;lat;lon;timestamp;temperature;humidity
12682;DHT22;6405;59.208;18.216;2023-08-06T00:00:26;11.20;99.90
12682;DHT22;6405;59.208;18.216;2023-08-06T00:02:52;11.30;99.90
12682;DHT22;6405;59.208;18.216;2023-08-06T00:05:18;11.20;99.90
12682;DHT22;6405;59.208;18.216;2023-08-06T00:07:52;11.20;99.90
12682;DHT22;6405;59.208;18.216;2023-08-06T00:10:18;11.10;99.90
12682;DHT22;6405;59.208;18.216;2023-08-06T00:12:44;11.10;99.90
12682;DHT22;6405;59.208;18.216;2023-08-06T00:15:10;11.10;99.90
12682;DHT22;6405;59.208;18.216;2023-08-06T00:17:36;11.10;99.90
12682;DHT22;6405;59.208;18.216;2023-08-06T00:20:03;11.10;99.90
12682;DHT22;6405;59.208;18.216;2023-08-06T00:22:34;11.00;99.90
12682;DHT22;6405;59.208;18.216;2023-08-06T00:25:00;11.00;99.90
12682;DHT22;6405;59.208;18.216;2023-08-06T00:27:26;11.00;99.90
12682;DHT22;6405;59.208;18.216;2023-08-06T00:29:52;11.00;99.90
12682;DHT22;6405;59.208;18.216;2023-08-06T00:32:18;10.90;99.90
12682;DHT22;6405;59.208;18.216;2023-08-06T00:34:44;10.90;99.90
12682;DHT22;6405;59.208;18.216;2023-08-06T00:37:10;10.90;99.90
12682;DHT22;6405;59.208;18.216;2023-08-06T00:39:35;10.90;99.90
12682;DHT22;6405;59.208;18.216;2023-08-06T00:42:01;10.80;99.90
12682;DHT22;6405;59.208;18.216;2023-08-06T00:44:27;10.70;99.90
12682;DHT22;6405;59.208;18.216;2023-08-06T00:46:53;10.70;99.90
12682;DHT22;6405;59.208;18.216;2023-08-06T00:49:19;10.70;99.90
12682;DHT22;6405;59.208;18.216;2023-08-06T00:51:45;10.60;99.90
12682;DHT22;6405;59.208;18.216;2023-08-06T00:54:12;10.60;99.90
12682;DHT22;6405;59.208;18.216;2023-08-06T00:56:38;10.60;99.90
12682;DHT22;6405;59.208;18.216;2023-08-06T00:59:05;10.60;99.90
12682;DHT22;6405;59.208;18.216;2023-08-06T01:01:31;10.60;99.90
12682;DHT22;6405;59.208;18.216;2023-08-06T01:03:57;10.60;99.90
12682;DHT22;6405;59.208;18.216;2023-08-06T01:06:45;10.50;99.90
12682;DHT22;6405;59.208;18.216;2023-08-06T01:09:34;10.50;99.90
12682;DHT22;6405;59.208;18.216;2023-08-06T01:15:15;10.40;99.90
12682;DHT22;6405;59.208;18.216;2023-08-06T01:17:41;10.40;99.90
12682;DHT22;6405;59.208;18.216;2023-08-06T01:20:07;10.40;99.90
12682;DHT22;6405;59.208;18.216;2023-08-06T01:22:33;10.40;99.90
12682;DHT22;6405;59.208;18.216;2023-08-06T01:24:59;10.40;99.90
12682;DHT22;6405;59.208;18.216;2023-08-06T01:27:33;10.30;99.90
12682;DHT22;6405;59.208;18.216;2023-08-06T01:30:12;10.40;99.90
12682;DHT22;6405;59.208;18.216;2023-08-06T01:32:43;10.30;99.90
12682;DHT22;6405;59.208;18.216;2023-08-06T01:35:11;10.20;99.90
12682;DHT22;6405;59.208;18.216;2023-08-06T01:37:38;10.20;99.90
12682;DHT22;6405;59.208;18.216;2023-08-06T01:40:10;10.20;99.90
12682;DHT22;6405;59.208;18.216;2023-08-06T01:42:37;10.20;99.90
12682;DHT22;6405;59.208;18.216;2023-08-06T01:45:03;10.20;99.90
12682;DHT22;6405;59.208;18.216;2023-08-06T01:47:28;10.20;99.90
12682;DHT22;6405;59.208;18.216;2023-08-06T01:49:54;10.10;99.90
12682;DHT22;6405;59.208;18.216;2023-08-06T01:52:20;10.10;99.90
12682;DHT22;6405;59.208;18.216;2023-08-06T01:54:45;10.10;99.90
12682;DHT22;6405;59.208;18.216;2023-08-06T01:57:11;10.10;99.90
12682;DHT22;6405;59.208;18.216;2023-08-06T01:59:37;10.00;99.90
12682;DHT22;6405;59.208;18.216;2023-08-06T02:02:03;10.10;99.90
12682;DHT22;6405;59.208;18.216;2023-08-06T02:04:29;10.20;99.90
12682;DHT22;6405;59.208;18.216;2023-08-06T02:06:55;10.00;99.90
12682;DHT22;6405;59.208;18.216;2023-08-06T02:09:20;10.00;99.90
12682;DHT22;6405;59.208;18.216;2023-08-06T02:11:46;10.00;99.90
12682;DHT22;6405;59.208;18.216;2023-08-06T02:14:12;10.00;99.90
12682;DHT22;6405;59.208;18.216;2023-08-06T02:16:38;10.00;99.90
12682;DHT22;6405;59.208;18.216;2023-08-06T02:19:04;10.00;99.90
12682;DHT22;6405;59.208;18.216;2023-08-06T02:21:29;9.90;99.90
12682;DHT22;6405;59.208;18.216;2023-08-06T02:23:55;9.90;99.90
12682;DHT22;6405;59.208;18.216;2023-08-06T02:26:21;9.90;99.90
12682;DHT22;6405;59.208;18.216;2023-08-06T02:28:46;9.90;99.90
12682;DHT22;6405;59.208;18.216;2023-08-06T02:31:12;9.90;99.90
12682;DHT22;6405;59.208;18.216;2023-08-06T02:33:38;9.80;99.90
12682;DHT22;6405;59.208;18.216;2023-08-06T02:36:04;9.90;99.90
12682;DHT22;6405;59.208;18.216;2023-08-06T02:38:31;9.80;99.90
12682;DHT22;6405;59.208;18.216;2023-08-06T02:40:57;9.80;99.90
12682;DHT22;6405;59.208;18.216;2023-08-06T02:43:22;9.80;99.90
12682;DHT22;6405;59.208;18.216;2023-08-06T02:45:48;9.70;99.90
12682;DHT22;6405;59.208;18.216;2023-08-06T02:48:14;9.70;99.90
12682;DHT22;6405;59.208;18.216;2023-08-06T02:50:40;9.70;99.90
12682;DHT22;6405;59.208;18.216;2023-08-06T02:53:09;9.70;99.90
12682;DHT22;6405;59.208;18.216;2023-08-06T02:55:35;9.70;99.90
12682;DHT22;6405;59.208;18.216;2023-08-06T02:58:02;9.70;99.90
12682;DHT22;6405;59.208;18.216;2023-08-06T03:00:28;9.70;99.90
12682;DHT22;6405;59.208;18.216;2023-08-06T03:02:54;9.80;99.90
12682;DHT22;6405;59.208;18.216;2023-08-06T03:05:20;9.80;99.90
12682;DHT22;6405;59.208;18.216;2023-08-06T03:07:45;9.80;99.90
12682;DHT22;6405;59.208;18.216;2023-08-06T03:10:11;9.80;99.90
12682;DHT22;6405;59.208;18.216;2023-08-06T03:12:37;9.70;99.90
12682;DHT22;6405;59.208;18.216;2023-08-06T03:15:03;9.70;99.90
12682;DHT22;6405;59.208;18.216;2023-08-06T03:17:29;9.70;99.90
12682;DHT22;6405;59.208;18.216;2023-08-06T03:19:55;9.70;99.90
12682;DHT22;6405;59.208;18.216;2023-08-06T03:22:21;9.70;99.90
12682;DHT22;6405;59.208;18.216;2023-08-06T03:24:50;9.50;99.90
12682;DHT22;6405;59.208;18.216;2023-08-06T03:27:17;9.70;99.90
12682;DHT22;6405;59.208;18.216;2023-08-06T03:29:42;9.70;99.90
12682;DHT22;6405;59.208;18.216;2023-08-06T03:32:08;9.70;99.90
12682;DHT22;6405;59.208;18.216;2023-08-06T03:34:34;9.80;99.90
12682;DHT22;6405;59.208;18.216;2023-08-06T03:37:00;9.80;99.90
12682;DHT22;6405;59.208;18.216;2023-08-06T03:39:26;9.80;99.90
12682;DHT22;6405;59.208;18.216;2023-08-06T03:41:51;10.00;99.90
12682;DHT22;6405;59.208;18.216;2023-08-06T03:44:17;9.80;99.90
12682;DHT22;6405;59.208;18.216;2023-08-06T03:46:43;9.80;99.90
12682;DHT22;6405;59.208;18.216;2023-08-06T03:49:08;9.80;99.90
12682;DHT22;6405;59.208;18.216;2023-08-06T03:51:34;9.80;99.90
12682;DHT22;6405;59.208;18.216;2023-08-06T03:54:00;9.90;99.90
12682;DHT22;6405;59.208;18.216;2023-08-06T03:56:26;9.90;99.90
12682;DHT22;6405;59.208;18.216;2023-08-06T03:58:51;10.00;99.90
12682;DHT22;6405;59.208;18.216;2023-08-06T04:01:17;10.00;99.90
12682;DHT22;6405;59.208;18.216;2023-08-06T04:03:43;10.10;99.90
12682;DHT22;6405;59.208;18.216;2023-08-06T04:06:09;10.10;99.90
12682;DHT22;6405;59.208;18.216;2023-08-06T04:08:34;10.20;99.90
12682;DHT22;6405;59.208;18.216;2023-08-06T04:11:00;10.30;99.90
12682;DHT22;6405;59.208;18.216;2023-08-06T04:13:26;10.40;99.90
12682;DHT22;6405;59.208;18.216;2023-08-06T04:15:52;10.40;99.90
12682;DHT22;6405;59.208;18.216;2023-08-06T04:18:18;10.50;99.90
12682;DHT22;6405;59.208;18.216;2023-08-06T04:20:47;10.60;99.90
12682;DHT22;6405;59.208;18.216;2023-08-06T04:23:15;10.70;99.90
12682;DHT22;6405;59.208;18.216;2023-08-06T04:25:40;10.80;99.90
12682;DHT22;6405;59.208;18.216;2023-08-06T04:28:07;10.90;99.90
12682;DHT22;6405;59.208;18.216;2023-08-06T04:30:33;11.00;99.90
12682;DHT22;6405;59.208;18.216;2023-08-06T04:32:59;11.10;99.90
12682;DHT22;6405;59.208;18.216;2023-08-06T04:35:25;11.40;99.90
12682;DHT22;6405;59.208;18.216;2023-08-06T04:37:51;11.30;99.90
12682;DHT22;6405;59.208;18.216;2023-08-06T04:40:16;11.50;99.90
12682;DHT22;6405;59.208;18.216;2023-08-06T04:42:42;11.60;99.90
12682;DHT22;6405;59.208;18.216;2023-08-06T04:45:08;11.70;99.90
12682;DHT22;6405;59.208;18.216;2023-08-06T04:47:34;11.80;99.90
12682;DHT22;6405;59.208;18.216;2023-08-06T04:50:00;11.90;99.90
12682;DHT22;6405;59.208;18.216;2023-08-06T04:52:25;12.00;99.90
12682;DHT22;6405;59.208;18.216;2023-08-06T04:54:54;12.10;99.90
12682;DHT22;6405;59.208;18.216;2023-08-06T04:57:19;12.20;99.90
12682;DHT22;6405;59.208;18.216;2023-08-06T04:59:45;12.30;99.90
12682;DHT22;6405;59.208;18.216;2023-08-06T05:02:11;12.40;99.90
12682;DHT22;6405;59.208;18.216;2023-08-06T05:04:37;12.50;99.90
12682;DHT22;6405;59.208;18.216;2023-08-06T05:07:03;12.50;99.90
12682;DHT22;6405;59.208;18.216;2023-08-06T05:09:29;12.60;99.90
12682;DHT22;6405;59.208;18.216;2023-08-06T05:11:55;12.70;99.90
12682;DHT22;6405;59.208;18.216;2023-08-06T05:14:20;12.70;99.90
12682;DHT22;6405;59.208;18.216;2023-08-06T05:16:46;12.80;99.90
12682;DHT22;6405;59.208;18.216;2023-08-06T05:19:12;12.70;99.90
12682;DHT22;6405;59.208;18.216;2023-08-06T05:21:38;13.00;99.90
12682;DHT22;6405;59.208;18.216;2023-08-06T05:24:04;13.00;99.90
12682;DHT22;6405;59.208;18.216;2023-08-06T05:26:29;13.10;99.90
12682;DHT22;6405;59.208;18.216;2023-08-06T05:28:55;13.20;99.90
12682;DHT22;6405;59.208;18.216;2023-08-06T05:31:21;13.40;99.90
12682;DHT22;6405;59.208;18.216;2023-08-06T05:33:47;13.50;99.90
12682;DHT22;6405;59.208;18.216;2023-08-06T05:36:12;13.60;99.90
12682;DHT22;6405;59.208;18.216;2023-08-06T05:38:38;13.70;99.90
12682;DHT22;6405;59.208;18.216;2023-08-06T05:41:04;13.90;99.90
12682;DHT22;6405;59.208;18.216;2023-08-06T05:43:30;14.00;99.90
12682;DHT22;6405;59.208;18.216;2023-08-06T05:45:56;14.10;99.90
12682;DHT22;6405;59.208;18.216;2023-08-06T05:48:22;14.30;99.90
12682;DHT22;6405;59.208;18.216;2023-08-06T05:50:51;14.40;99.90
12682;DHT22;6405;59.208;18.216;2023-08-06T05:53:17;14.60;99.90
12682;DHT22;6405;59.208;18.216;2023-08-06T05:55:43;14.70;99.90
12682;DHT22;6405;59.208;18.216;2023-08-06T05:58:09;14.80;99.90
12682;DHT22;6405;59.208;18.216;2023-08-06T06:00:35;15.00;99.90
12682;DHT22;6405;59.208;18.216;2023-08-06T06:03:01;15.10;99.90
12682;DHT22;6405;59.208;18.216;2023-08-06T06:05:27;15.20;99.90
12682;DHT22;6405;59.208;18.216;2023-08-06T06:07:53;15.50;99.90
12682;DHT22;6405;59.208;18.216;2023-08-06T06:10:19;15.60;99.90
12682;DHT22;6405;59.208;18.216;2023-08-06T06:12:45;15.80;99.90
12682;DHT22;6405;59.208;18.216;2023-08-06T06:15:11;15.90;99.90
12682;DHT22;6405;59.208;18.216;2023-08-06T06:17:36;16.20;99.90
12682;DHT22;6405;59.208;18.216;2023-08-06T06:20:03;16.30;99.90
12682;DHT22;6405;59.208;18.216;2023-08-06T06:22:30;16.50;99.90
12682;DHT22;6405;59.208;18.216;2023-08-06T06:24:55;16.60;99.90
12682;DHT22;6405;59.208;18.216;2023-08-06T06:27:21;16.70;99.90
12682;DHT22;6405;59.208;18.216;2023-08-06T06:29:47;16.80;99.90
12682;DHT22;6405;59.208;18.216;2023-08-06T06:32:13;16.90;99.90
12682;DHT22;6405;59.208;18.216;2023-08-06T06:34:39;17.00;99.90
12682;DHT22;6405;59.208;18.216;2023-08-06T06:37:05;17.10;99.90
12682;DHT22;6405;59.208;18.216;2023-08-06T06:39:30;17.10;99.90
12682;DHT22;6405;59.208;18.216;2023-08-06T06:41:56;17.10;99.90
12682;DHT22;6405;59.208;18.216;2023-08-06T06:44:22;17.10;99.90
12682;DHT22;6405;59.208;18.216;2023-08-06T06:46:48;17.10;99.90
12682;DHT22;6405;59.208;18.216;2023-08-06T06:49:13;17.10;99.90
12682;DHT22;6405;59.208;18.216;2023-08-06T06:51:39;17.20;99.90
12682;DHT22;6405;59.208;18.216;2023-08-06T06:54:05;17.20;99.90
12682;DHT22;6405;59.208;18.216;2023-08-06T06:56:31;17.30;99.90
12682;DHT22;6405;59.208;18.216;2023-08-06T06:58:57;17.40;99.90
12682;DHT22;6405;59.208;18.216;2023-08-06T07:01:22;17.40;99.90
12682;DHT22;6405;59.208;18.216;2023-08-06T07:03:48;17.60;99.90
12682;DHT22;6405;59.208;18.216;2023-08-06T07:06:14;17.70;99.90
12682;DHT22;6405;59.208;18.216;2023-08-06T07:08:41;17.60;99.90
12682;DHT22;6405;59.208;18.216;2023-08-06T07:11:07;17.80;99.90
12682;DHT22;6405;59.208;18.216;2023-08-06T07:13:34;17.90;99.90
12682;DHT22;6405;59.208;18.216;2023-08-06T07:16:00;18.00;99.90
12682;DHT22;6405;59.208;18.216;2023-08-06T07:18:26;18.10;99.90
12682;DHT22;6405;59.208;18.216;2023-08-06T07:20:53;18.20;99.90
12682;DHT22;6405;59.208;18.216;2023-08-06T07:23:25;18.20;99.90
12682;DHT22;6405;59.208;18.216;2023-08-06T07:25:51;18.30;99.90
12682;DHT22;6405;59.208;18.216;2023-08-06T07:28:17;18.30;99.90
12682;DHT22;6405;59.208;18.216;2023-08-06T07:30:44;18.40;99.90
12682;DHT22;6405;59.208;18.216;2023-08-06T07:33:10;18.40;99.90
12682;DHT22;6405;59.208;18.216;2023-08-06T07:35:37;18.50;99.90
12682;DHT22;6405;59.208;18.216;2023-08-06T07:38:03;18.50;99.90
12682;DHT22;6405;59.208;18.216;2023-08-06T07:40:29;18.70;99.90
12682;DHT22;6405;59.208;18.216;2023-08-06T07:42:55;18.80;99.90
12682;DHT22;6405;59.208;18.216;2023-08-06T07:45:21;18.80;99.90
12682;DHT22;6405;59.208;18.216;2023-08-06T07:47:46;18.80;99.90
12682;DHT22;6405;59.208;18.216;2023-08-06T07:50:13;18.80;99.90
12682;DHT22;6405;59.208;18.216;2023-08-06T07:52:39;18.90;99.90
12682;DHT22;6405;59.208;18.216;2023-08-06T07:55:05;18.90;99.90
12682;DHT22;6405;59.208;18.216;2023-08-06T07:57:32;19.00;99.90
12682;DHT22;6405;59.208;18.216;2023-08-06T07:59:57;19.00;99.90
12682;DHT22;6405;59.208;18.216;2023-08-06T08:02:24;19.10;99.90
12682;DHT22;6405;59.208;18.216;2023-08-06T08:04:50;19.30;99.90
12682;DHT22;6405;59.208;18.216;2023-08-06T08:07:15;19.30;99.90
12682;DHT22;6405;59.208;18.216;2023-08-06T08:09:41;19.20;99.90
12682;DHT22;6405;59.208;18.216;2023-08-06T08:12:07;19.20;99.90
12682;DHT22;6405;59.208;18.216;2023-08-06T08:14:33;19.20;99.90
12682;DHT22;6405;59.208;18.216;2023-08-06T08:17:04;19.30;99.90
12682;DHT22;6405;59.208;18.216;2023-08-06T08:19:31;19.30;99.90
12682;DHT22;6405;59.208;18.216;2023-08-06T08:21:57;19.30;99.90
12682;DHT22;6405;59.208;18.216;2023-08-06T08:24:23;19.20;99.90
12682;DHT22;6405;59.208;18.216;2023-08-06T08:26:53;19.30;99.90
12682;DHT22;6405;59.208;18.216;2023-08-06T08:29:22;19.30;99.90
12682;DHT22;6405;59.208;18.216;2023-08-06T08:31:48;19.20;99.90
12682;DHT22;6405;59.208;18.216;2023-08-06T08:34:16;19.20;99.90
12682;DHT22;6405;59.208;18.216;2023-08-06T08:36:42;19.10;99.90
12682;DHT22;6405;59.208;18.216;2023-08-06T08:39:08;19.20;99.90
12682;DHT22;6405;59.208;18.216;2023-08-06T08:41:37;19.20;99.90
12682;DHT22;6405;59.208;18.216;2023-08-06T08:44:03;19.30;99.90
12682;DHT22;6405;59.208;18.216;2023-08-06T08:46:31;19.30;99.90
12682;DHT22;6405;59.208;18.216;2023-08-06T08:48:59;19.30;99.90
12682;DHT22;6405;59.208;18.216;2023-08-06T08:51:27;19.20;99.90
12682;DHT22;6405;59.208;18.216;2023-08-06T08:53:53;19.20;99.90
12682;DHT22;6405;59.208;18.216;2023-08-06T08:56:23;19.10;99.90
12682;DHT22;6405;59.208;18.216;2023-08-06T08:58:50;19.10;99.90
12682;DHT22;6405;59.208;18.216;2023-08-06T09:01:16;19.10;99.90
12682;DHT22;6405;59.208;18.216;2023-08-06T09:03:43;19.10;99.90
12682;DHT22;6405;59.208;18.216;2023-08-06T09:06:11;19.10;99.90
12682;DHT22;6405;59.208;18.216;2023-08-06T09:08:43;19.10;99.90
12682;DHT22;6405;59.208;18.216;2023-08-06T09:11:12;19.20;99.90
12682;DHT22;6405;59.208;18.216;2023-08-06T09:13:38;19.20;99.90
12682;DHT22;6405;59.208;18.216;2023-08-06T09:16:04;19.30;99.90
12682;DHT22;6405;59.208;18.216;2023-08-06T09:18:31;19.10;99.90
12682;DHT22;6405;59.208;18.216;2023-08-06T09:20:57;19.20;99.90
12682;DHT22;6405;59.208;18.216;2023-08-06T09:23:31;19.20;99.90
12682;DHT22;6405;59.208;18.216;2023-08-06T09:25:57;19.30;99.90
12682;DHT22;6405;59.208;18.216;2023-08-06T09:28:23;19.30;99.90
12682;DHT22;6405;59.208;18.216;2023-08-06T09:30:52;19.40;99.90
12682;DHT22;6405;59.208;18.216;2023-08-06T09:33:22;19.40;99.90
12682;DHT22;6405;59.208;18.216;2023-08-06T09:35:49;19.40;99.90
12682;DHT22;6405;59.208;18.216;2023-08-06T09:38:14;19.40;99.90
12682;DHT22;6405;59.208;18.216;2023-08-06T09:40:40;19.40;99.90
12682;DHT22;6405;59.208;18.216;2023-08-06T09:43:06;19.40;99.90
12682;DHT22;6405;59.208;18.216;2023-08-06T09:45:36;19.30;99.90
12682;DHT22;6405;59.208;18.216;2023-08-06T09:48:04;19.30;99.90
12682;DHT22;6405;59.208;18.216;2023-08-06T09:50:32;19.20;99.90
12682;DHT22;6405;59.208;18.216;2023-08-06T09:52:59;19.20;99.90
12682;DHT22;6405;59.208;18.216;2023-08-06T09:55:25;19.20;99.90
12682;DHT22;6405;59.208;18.216;2023-08-06T09:57:54;19.00;99.90
12682;DHT22;6405;59.208;18.216;2023-08-06T10:00:20;18.90;99.90
12682;DHT22;6405;59.208;18.216;2023-08-06T10:02:47;18.90;99.90
12682;DHT22;6405;59.208;18.216;2023-08-06T10:05:14;18.90;99.90
12682;DHT22;6405;59.208;18.216;2023-08-06T10:07:43;18.80;99.90
12682;DHT22;6405;59.208;18.216;2023-08-06T10:10:09;18.70;99.90
12682;DHT22;6405;59.208;18.216;2023-08-06T10:12:54;18.70;99.90
12682;DHT22;6405;59.208;18.216;2023-08-06T10:15:31;18.60;99.90
12682;DHT22;6405;59.208;18.216;2023-08-06T10:17:59;18.60;99.90
12682;DHT22;6405;59.208;18.216;2023-08-06T10:20:26;18.50;99.90
12682;DHT22;6405;59.208;18.216;2023-08-06T10:23:05;18.50;99.90
12682;DHT22;6405;59.208;18.216;2023-08-06T10:25:40;18.50;99.90
12682;DHT22;6405;59.208;18.216;2023-08-06T10:28:11;18.40;99.90
12682;DHT22;6405;59.208;18.216;2023-08-06T10:30:45;18.30;99.90
12682;DHT22;6405;59.208;18.216;2023-08-06T10:33:12;18.30;99.90
12682;DHT22;6405;59.208;18.216;2023-08-06T10:35:48;18.30;99.90
12682;DHT22;6405;59.208;18.216;2023-08-06T10:38:16;18.30;99.90
12682;DHT22;6405;59.208;18.216;2023-08-06T10:43:36;18.20;99.90
12682;DHT22;6405;59.208;18.216;2023-08-06T10:46:21;18.20;99.90
12682;DHT22;6405;59.208;18.216;2023-08-06T10:48:47;18.10;99.90
12682;DHT22;6405;59.208;18.216;2023-08-06T10:51:14;18.10;99.90
12682;DHT22;6405;59.208;18.216;2023-08-06T10:53:45;18.00;99.90
12682;DHT22;6405;59.208;18.216;2023-08-06T10:56:25;17.90;99.90
12682;DHT22;6405;59.208;18.216;2023-08-06T10:58:54;17.90;99.90
12682;DHT22;6405;59.208;18.216;2023-08-06T11:01:23;17.80;99.90
12682;DHT22;6405;59.208;18.216;2023-08-06T11:03:49;17.80;99.90
12682;DHT22;6405;59.208;18.216;2023-08-06T11:06:22;17.70;99.90
12682;DHT22;6405;59.208;18.216;2023-08-06T11:08:50;17.60;99.90
12682;DHT22;6405;59.208;18.216;2023-08-06T11:11:17;17.60;99.90
12682;DHT22;6405;59.208;18.216;2023-08-06T11:13:52;17.50;99.90
12682;DHT22;6405;59.208;18.216;2023-08-06T11:16:22;17.50;99.90
12682;DHT22;6405;59.208;18.216;2023-08-06T11:18:50;17.50;99.90
12682;DHT22;6405;59.208;18.216;2023-08-06T11:21:22;17.50;99.90
12682;DHT22;6405;59.208;18.216;2023-08-06T11:23:51;17.50;99.90
12682;DHT22;6405;59.208;18.216;2023-08-06T11:26:20;17.50;99.90
12682;DHT22;6405;59.208;18.216;2023-08-06T11:28:46;17.50;99.90
12682;DHT22;6405;59.208;18.216;2023-08-06T11:31:20;17.40;99.90
12682;DHT22;6405;59.208;18.216;2023-08-06T11:33:45;17.50;99.90
12682;DHT22;6405;59.208;18.216;2023-08-06T11:36:11;17.50;99.90
12682;DHT22;6405;59.208;18.216;2023-08-06T11:38:37;17.50;99.90
12682;DHT22;6405;59.208;18.216;2023-08-06T11:41:03;17.50;99.90
12682;DHT22;6405;59.208;18.216;2023-08-06T11:43:31;17.40;99.90
12682;DHT22;6405;59.208;18.216;2023-08-06T11:45:56;17.40;99.90
12682;DHT22;6405;59.208;18.216;2023-08-06T11:48:22;17.30;99.90
12682;DHT22;6405;59.208;18.216;2023-08-06T11:50:48;17.30;99.90
12682;DHT22;6405;59.208;18.216;2023-08-06T11:53:14;17.20;99.90
12682;DHT22;6405;59.208;18.216;2023-08-06T11:55:40;17.20;99.90
12682;DHT22;6405;59.208;18.216;2023-08-06T11:58:06;17.20;99.90
12682;DHT22;6405;59.208;18.216;2023-08-06T12:00:32;17.20;99.90
12682;DHT22;6405;59.208;18.216;2023-08-06T12:02:58;17.20;99.90
12682;DHT22;6405;59.208;18.216;2023-08-06T12:05:30;17.20;99.90
12682;DHT22;6405;59.208;18.216;2023-08-06T12:07:57;17.10;99.90
12682;DHT22;6405;59.208;18.216;2023-08-06T12:10:28;17.00;99.90
12682;DHT22;6405;59.208;18.216;2023-08-06T12:12:54;17.00;99.90
12682;DHT22;6405;59.208;18.216;2023-08-06T12:15:20;17.00;99.90
12682;DHT22;6405;59.208;18.216;2023-08-06T12:17:46;17.00;99.90
12682;DHT22;6405;59.208;18.216;2023-08-06T12:20:12;17.20;99.90
12682;DHT22;6405;59.208;18.216;2023-08-06T12:22:39;17.10;99.90
12682;DHT22;6405;59.208;18.216;2023-08-06T12:25:09;17.10;99.90
12682;DHT22;6405;59.208;18.216;2023-08-06T12:27:39;17.10;99.90
12682;DHT22;6405;59.208;18.216;2023-08-06T12:30:06;17.10;99.90
12682;DHT22;6405;59.208;18.216;2023-08-06T12:32:33;17.20;99.90
12682;DHT22;6405;59.208;18.216;2023-08-06T12:34:59;17.10;99.90
12682;DHT22;6405;59.208;18.216;2023-08-06T12:37:26;17.10;99.90
12682;DHT22;6405;59.208;18.216;2023-08-06T12:39:52;17.10;99.90
12682;DHT22;6405;59.208;18.216;2023-08-06T12:42:18;17.10;99.90
12682;DHT22;6405;59.208;18.216;2023-08-06T12:44:44;17.00;99.90
12682;DHT22;6405;59.208;18.216;2023-08-06T12:47:10;17.00;99.90
12682;DHT22;6405;59.208;18.216;2023-08-06T12:49:36;17.00;99.90
12682;DHT22;6405;59.208;18.216;2023-08-06T12:52:03;17.00;99.90
12682;DHT22;6405;59.208;18.216;2023-08-06T12:54:32;16.90;99.90
12682;DHT22;6405;59.208;18.216;2023-08-06T12:57:03;16.90;99.90
12682;DHT22;6405;59.208;18.216;2023-08-06T12:59:29;16.90;99.90
12682;DHT22;6405;59.208;18.216;2023-08-06T13:01:55;16.80;99.90
12682;DHT22;6405;59.208;18.216;2023-08-06T13:04:21;16.80;99.90
12682;DHT22;6405;59.208;18.216;2023-08-06T13:06:47;16.80;99.90
12682;DHT22;6405;59.208;18.216;2023-08-06T13:09:15;16.80;99.90
12682;DHT22;6405;59.208;18.216;2023-08-06T13:11:41;16.80;99.90
12682;DHT22;6405;59.208;18.216;2023-08-06T13:14:09;16.80;99.90
12682;DHT22;6405;59.208;18.216;2023-08-06T13:16:36;16.80;99.90
12682;DHT22;6405;59.208;18.216;2023-08-06T13:19:03;16.80;99.90
12682;DHT22;6405;59.208;18.216;2023-08-06T13:24:11;16.70;99.90
12682;DHT22;6405;59.208;18.216;2023-08-06T13:26:39;16.70;99.90
12682;DHT22;6405;59.208;18.216;2023-08-06T13:29:05;16.70;99.90
12682;DHT22;6405;59.208;18.216;2023-08-06T13:31:33;16.60;99.90
12682;DHT22;6405;59.208;18.216;2023-08-06T13:33:59;16.60;99.90
12682;DHT22;6405;59.208;18.216;2023-08-06T13:36:28;16.60;99.90
12682;DHT22;6405;59.208;18.216;2023-08-06T13:38:54;16.60;99.90
12682;DHT22;6405;59.208;18.216;2023-08-06T13:41:21;16.50;99.90
12682;DHT22;6405;59.208;18.216;2023-08-06T13:43:47;16.50;99.90
12682;DHT22;6405;59.208;18.216;2023-08-06T13:46:14;16.50;99.90
12682;DHT22;6405;59.208;18.216;2023-08-06T13:48:44;16.50;99.90
12682;DHT22;6405;59.208;18.216;2023-08-06T13:51:11;16.50;99.90
12682;DHT22;6405;59.208;18.216;2023-08-06T13:53:41;16.40;99.90
12682;DHT22;6405;59.208;18.216;2023-08-06T13:56:08;16.40;99.90
12682;DHT22;6405;59.208;18.216;2023-08-06T13:58:36;16.50;99.90
12682;DHT22;6405;59.208;18.216;2023-08-06T14:01:02;16.40;99.90
12682;DHT22;6405;59.208;18.216;2023-08-06T14:03:28;16.40;99.90
12682;DHT22;6405;59.208;18.216;2023-08-06T14:05:54;16.40;99.90
12682;DHT22;6405;59.208;18.216;2023-08-06T14:08:27;16.30;99.90
12682;DHT22;6405;59.208;18.216;2023-08-06T14:10:53;16.30;99.90
12682;DHT22;6405;59.208;18.216;2023-08-06T14:13:20;16.30;99.90
12682;DHT22;6405;59.208;18.216;2023-08-06T14:15:46;16.30;99.90
12682;DHT22;6405;59.208;18.216;2023-08-06T14:18:16;16.30;99.90
12682;DHT22;6405;59.208;18.216;2023-08-06T14:20:43;16.30;99.90
12682;DHT22;6405;59.208;18.216;2023-08-06T14:23:09;16.30;99.90
12682;DHT22;6405;59.208;18.216;2023-08-06T14:25:37;16.30;99.90
12682;DHT22;6405;59.208;18.216;2023-08-06T14:28:04;16.30;99.90
12682;DHT22;6405;59.208;18.216;2023-08-06T14:30:32;16.30;99.90
12682;DHT22;6405;59.208;18.216;2023-08-06T14:32:59;16.30;99.90
12682;DHT22;6405;59.208;18.216;2023-08-06T14:35:26;16.30;99.90
12682;DHT22;6405;59.208;18.216;2023-08-06T14:37:52;16.30;99.90
12682;DHT22;6405;59.208;18.216;2023-08-06T14:40:18;16.30;99.90
12682;DHT22;6405;59.208;18.216;2023-08-06T14:42:44;16.30;99.90
12682;DHT22;6405;59.208;18.216;2023-08-06T14:45:10;16.40;99.90
12682;DHT22;6405;59.208;18.216;2023-08-06T14:47:36;16.40;99.90
12682;DHT22;6405;59.208;18.216;2023-08-06T14:50:02;16.50;99.90
12682;DHT22;6405;59.208;18.216;2023-08-06T14:52:28;16.40;99.90
12682;DHT22;6405;59.208;18.216;2023-08-06T14:54:55;16.60;99.90
12682;DHT22;6405;59.208;18.216;2023-08-06T14:57:21;16.40;99.90
12682;DHT22;6405;59.208;18.216;2023-08-06T14:59:53;16.50;99.90
12682;DHT22;6405;59.208;18.216;2023-08-06T15:02:19;16.50;99.90
12682;DHT22;6405;59.208;18.216;2023-08-06T15:04:45;16.50;99.90
12682;DHT22;6405;59.208;18.216;2023-08-06T15:07:10;16.50;99.90
12682;DHT22;6405;59.208;18.216;2023-08-06T15:09:36;16.50;99.90
12682;DHT22;6405;59.208;18.216;2023-08-06T15:12:02;16.50;99.90
12682;DHT22;6405;59.208;18.216;2023-08-06T15:14:28;16.50;99.90
12682;DHT22;6405;59.208;18.216;2023-08-06T15:16:53;16.50;99.90
12682;DHT22;6405;59.208;18.216;2023-08-06T15:19:22;16.50;99.90
12682;DHT22;6405;59.208;18.216;2023-08-06T15:21:48;16.40;99.90
12682;DHT22;6405;59.208;18.216;2023-08-06T15:24:14;16.50;99.90
12682;DHT22;6405;59.208;18.216;2023-08-06T15:26:39;16.50;99.90
12682;DHT22;6405;59.208;18.216;2023-08-06T15:29:05;16.40;99.90
12682;DHT22;6405;59.208;18.216;2023-08-06T15:31:40;16.40;99.90
12682;DHT22;6405;59.208;18.216;2023-08-06T15:34:07;16.30;99.90
12682;DHT22;6405;59.208;18.216;2023-08-06T15:36:33;16.30;99.90
12682;DHT22;6405;59.208;18.216;2023-08-06T15:39:00;16.30;99.90